Teslin, Canada
Current Conditions -  °F | °C
As of 8:13 AM on Friday 21 Nov 2014 (Local Time) from CYXY Reporting Station
Light Snow Light Snow  
Wind Chill: 14°   Ceiling: 1600
Heat Index: 21°   Visibility: 2mi
Dew Point: 18°   Wind: 6mph
Humidity: 86%   Direction: 330°NNW
Pressure: 29.27"   Gusts: NA
Location:  60.17°N, 132.72°W
Report Text: CYXY 211613Z 33005KT 2SM -SN SCT008 OVC016 M06/M08 A2927 RMK ST3SC5 SLP953
Loading
Personal Weather Stations






























Interactive Weather Map New forecast layout! Learn more

10-Day Weather Forecast

Advertisements
Track Severe Weather on mobile